Comte. Rolim Adolfo Amaro–Jundiaí State Airport

SBJD · São Paulo, 巴西

罗盘
风向 的 风向 130° Comte. Rolim Adolfo Amaro–Jundiaí State Airport 18/36
风: 13 kt, 4 beaufort

12 kt

6 kt
改变
0 1.000 2.000 3.000 4.000 5.000
CAVOK
METAR SBKP 271100Z 13013KT CAVOK 21/15 Q1015

METAR Comte. Rolim Adolfo Amaro–Jundiaí State Airport - SBJD/QDV

Comte. Rolim Adolfo Amaro–Jundiaí State Airport是,巴西中的小机场。 该机场有一条跑道: 18/36. 该领域的国际民航组织标志是SBJD 它的国际航空运输协会代码是QDV.

这份报告是针对2022年11月27日 08:00, 当地时间在Viracopos International Airport进行的。

机场观察

风向为130°,速度为13 kt。

天气为CAVOK。这意味着在5.000 ft或MSA(最低安全高度)以下(以较高者为准)以下没有云。这也意味着没有观测到积雨云或高耸的积云,可见度为10 km 或者更多或更高。此外,不会有雾,降雨或其他重要天气。

温度和风寒是21 °C。 露点为15 °C,相对湿度为69%。 海平面上的气压为1015 hPa (QNH)。

白天

今天,太阳从05:13升起,在18:37降落。 这适用于Comte. Rolim Adolfo Amaro–Jundiaí State Airport,世界夏令时可能有所不同。 当地时间与世界标准时间之间的时差为-3 小时。 当前,没有夏令时有效。

公司介绍

我们没有关于这个机场的公司信息。

体会

到Vliegles.nl去找飞行课程,跳伞和其他飞行体验。 浏览页面,了解Comte. Rolim Adolfo Amaro–Jundiaí State Airport附近所有可用的活动。 你也可以使用搜索功能来寻找你所在地附近的特定飞行课程、跳伞或其他飞行体验。

跑道

Id 标题 侧风 逆风 侧风 %
18/36 157°-337° 6 kt 12 kt 45 %

逆风成分最大的方向会被突出显示,并用于横风计算。 这并不一定意味着这个方向在使用。

温度 & 天气

温度 21 °C
露点 15 °C
相对湿度 69%
Kp-index 1 (0-9)

白天

日出
05:14
中午
11:56
日落
18:38 (10:11)

小工具

你想在你的网站上有一个关于Comte. Rolim Adolfo Amaro–Jundiaí State Airport的当前航空天气(METAR)的小部件吗?

显示HTML代码

我们和第三方通过cookies跟踪您在我们网站上的互联网行为。如果你继续,我们认为你同意我们的饼干政策